Riverside, North Carolina
Current Conditions -  °F | °C
As of 3:15 PM on Monday 26 Jan 2015 (Local Time) from KRHP Reporting Station
Overcast Overcast  
Wind Chill: 30°   Ceiling: 2000
Heat Index: 34°   Visibility: 10mi
Dew Point: 30°   Wind: 5mph
Humidity: 85%   Direction: 240°WSW
Pressure: 29.8"   Gusts: NA
Location:  35.1737°N, 83.4215°W
Report Text: KRHP 262015Z AUTO 24004KT 10SM BKN020 OVC028 01/M01 A2980 RMK AO2 T00121011
Loading
Personal Weather Stations






























Interactive Weather Map New forecast layout! Learn more

10-Day Weather Forecast

Advertisements
Track Severe Weather on mobile